createdAt,value
2023-01-10T00:00:55.689Z,18.67
2023-01-10T00:03:24.189Z,23.23
2023-01-10T00:05:53.179Z,20.00
2023-01-10T00:08:20.461Z,18.98
2023-01-10T00:11:33.533Z,24.38
2023-01-10T00:14:04.011Z,21.92
2023-01-10T00:16:34.269Z,21.70
2023-01-10T00:19:12.931Z,24.15
2023-01-10T00:21:40.046Z,21.80
2023-01-10T00:24:26.390Z,16.67
2023-01-10T00:26:54.443Z,16.00
2023-01-10T00:29:36.981Z,22.80
2023-01-10T00:32:09.655Z,18.42
2023-01-10T00:38:36.060Z,15.65
2023-01-10T00:45:35.662Z,25.30
2023-01-10T00:48:05.181Z,26.15
2023-01-10T00:50:33.813Z,26.73
2023-01-10T00:53:02.852Z,20.88
2023-01-10T00:55:38.174Z,21.75
2023-01-10T00:58:05.625Z,23.80
2023-01-10T01:01:28.931Z,19.50
2023-01-10T01:03:56.358Z,17.25
2023-01-10T01:06:28.671Z,20.98
2023-01-10T01:08:59.074Z,21.45
2023-01-10T01:11:30.177Z,21.27
2023-01-10T01:14:00.753Z,21.65
2023-01-10T01:16:31.400Z,21.70
2023-01-10T01:18:59.526Z,16.00
2023-01-10T01:21:28.790Z,21.13
2023-01-10T01:24:06.295Z,22.52
2023-01-10T01:26:36.719Z,20.08
2023-01-10T01:29:07.077Z,16.48
2023-01-10T01:31:34.273Z,21.20
2023-01-10T01:34:07.195Z,17.95
2023-01-10T01:36:39.648Z,30.83
2023-01-10T01:39:09.724Z,19.65
2023-01-10T01:41:56.525Z,18.45
2023-01-10T01:44:39.458Z,24.48
2023-01-10T01:49:45.895Z,23.08
2023-01-10T01:52:24.820Z,27.33
2023-01-10T01:54:54.762Z,14.57
2023-01-10T01:57:27.011Z,24.80
2023-01-10T01:59:55.823Z,20.80
2023-01-10T02:02:30.791Z,18.55
2023-01-10T02:05:08.740Z,24.92
2023-01-10T02:08:49.624Z,23.70
2023-01-10T02:15:46.115Z,22.10
2023-01-10T02:23:00.241Z,18.80
2023-01-10T02:26:06.785Z,25.50
2023-01-10T02:28:57.779Z,27.02
2023-01-10T02:31:47.321Z,14.82
2023-01-10T02:34:34.349Z,29.08
2023-01-10T02:37:10.097Z,33.35
2023-01-10T02:39:52.363Z,27.00
2023-01-10T02:42:34.803Z,15.02
2023-01-10T02:45:11.496Z,20.25
2023-01-10T02:47:41.566Z,19.33
2023-01-10T02:50:25.903Z,35.67
2023-01-10T02:52:56.838Z,21.52
2023-01-10T02:55:44.415Z,25.23
2023-01-10T02:58:36.996Z,33.70
2023-01-10T03:01:13.088Z,21.02
2023-01-10T03:04:02.411Z,23.42
2023-01-10T03:06:45.800Z,24.20
2023-01-10T03:09:27.515Z,26.15
2023-01-10T03:12:11.852Z,23.80
2023-01-10T03:14:41.670Z,28.83
2023-01-10T03:17:13.428Z,24.92
2023-01-10T03:19:50.354Z,22.23
2023-01-10T03:22:18.045Z,19.20
2023-01-10T03:24:50.176Z,15.98
2023-01-10T03:27:40.534Z,30.38
2023-01-10T03:30:28.458Z,20.83
2023-01-10T03:33:00.068Z,24.23
2023-01-10T03:36:01.258Z,27.00
2023-01-10T03:38:54.443Z,32.35
2023-01-10T03:44:33.851Z,25.27
2023-01-10T03:47:32.172Z,28.10
2023-01-10T03:50:09.059Z,24.92
2023-01-10T03:52:37.220Z,37.35
2023-01-10T03:55:07.741Z,25.13
2023-01-10T03:57:37.877Z,22.13
2023-01-10T04:00:12.290Z,22.50
2023-01-10T04:02:42.729Z,24.75
2023-01-10T04:05:10.789Z,30.15
2023-01-10T04:07:43.705Z,28.38
2023-01-10T04:10:13.377Z,31.52
2023-01-10T04:12:41.679Z,27.35
2023-01-10T04:15:13.043Z,27.10
2023-01-10T04:17:41.310Z,29.80
2023-01-10T04:20:09.480Z,25.85
2023-01-10T04:22:39.604Z,32.75
2023-01-10T04:25:07.263Z,30.20
2023-01-10T04:27:34.318Z,29.30
2023-01-10T04:30:02.534Z,32.83
2023-01-10T04:32:30.824Z,25.17
2023-01-10T04:34:58.231Z,29.00
2023-01-10T04:37:25.375Z,25.45
2023-01-10T04:39:55.553Z,27.80
2023-01-10T04:42:23.404Z,31.92
2023-01-10T04:44:51.940Z,25.60
2023-01-10T04:47:20.931Z,26.70
2023-01-10T04:49:49.953Z,23.38
2023-01-10T04:52:19.408Z,25.20
2023-01-10T04:54:47.605Z,34.65
2023-01-10T04:57:16.960Z,29.67
2023-01-10T04:59:44.028Z,39.95
2023-01-10T05:02:13.835Z,26.30
2023-01-10T05:04:41.970Z,38.40
2023-01-10T05:07:11.384Z,25.90
2023-01-10T05:09:42.959Z,18.95
2023-01-10T05:12:11.181Z,25.45
2023-01-10T05:14:39.479Z,35.60
2023-01-10T05:17:08.783Z,27.92
2023-01-10T05:19:37.746Z,24.55
2023-01-10T05:22:04.718Z,28.77
2023-01-10T05:24:32.189Z,28.73
2023-01-10T05:27:01.664Z,14.82
2023-01-10T05:29:33.934Z,35.70
2023-01-10T05:32:02.493Z,31.90
2023-01-10T05:34:30.810Z,15.18
2023-01-10T05:37:01.859Z,31.13
2023-01-10T05:39:30.239Z,32.78
2023-01-10T05:41:58.646Z,25.60
2023-01-10T05:44:25.786Z,19.30
2023-01-10T05:46:54.986Z,25.55
2023-01-10T05:49:23.376Z,38.22
2023-01-10T05:51:50.554Z,31.63
2023-01-10T05:54:20.627Z,28.10
2023-01-10T05:56:48.738Z,29.27
2023-01-10T05:59:27.543Z,27.30
2023-01-10T06:01:57.671Z,16.83
2023-01-10T06:04:27.003Z,28.77
2023-01-10T06:06:55.246Z,26.50
2023-01-10T06:09:22.403Z,33.30
2023-01-10T06:11:53.235Z,17.35
2023-01-10T06:15:03.903Z,27.67
2023-01-10T06:17:33.146Z,27.58
2023-01-10T06:20:14.394Z,27.98
2023-01-10T06:23:07.911Z,25.88
2023-01-10T06:25:40.200Z,28.58
2023-01-10T06:28:13.378Z,22.55
2023-01-10T06:30:44.942Z,24.55
2023-01-10T06:33:13.981Z,24.00
2023-01-10T06:35:41.400Z,25.17
2023-01-10T06:38:08.683Z,26.02
2023-01-10T06:40:36.872Z,26.50
2023-01-10T06:43:04.416Z,20.55
2023-01-10T06:45:31.915Z,31.73
2023-01-10T06:47:59.119Z,18.85
2023-01-10T06:50:28.288Z,18.15
2023-01-10T06:52:58.011Z,28.63
2023-01-10T06:55:27.769Z,26.15
2023-01-10T06:58:03.131Z,16.67
2023-01-10T07:00:32.649Z,21.70
2023-01-10T07:03:05.495Z,24.90
2023-01-10T07:05:36.924Z,16.52
2023-01-10T07:08:13.193Z,30.10
2023-01-10T07:10:44.682Z,20.48
2023-01-10T07:13:13.691Z,15.88
2023-01-10T07:15:41.840Z,24.10
2023-01-10T07:18:12.868Z,20.65
2023-01-10T07:20:47.352Z,20.35
2023-01-10T07:23:14.498Z,24.48
2023-01-10T07:26:10.272Z,19.00
2023-01-10T07:28:40.622Z,15.27
2023-01-10T07:31:14.267Z,25.17
2023-01-10T07:33:41.513Z,21.88
2023-01-10T07:36:38.433Z,20.70
2023-01-10T07:39:07.624Z,14.50
2023-01-10T07:41:42.180Z,25.33
2023-01-10T07:44:12.688Z,24.00
2023-01-10T07:46:41.950Z,26.05
2023-01-10T07:49:15.612Z,15.00
2023-01-10T07:51:44.365Z,21.33
2023-01-10T07:55:04.379Z,25.60
2023-01-10T07:57:32.756Z,22.52
2023-01-10T07:59:59.882Z,28.10
2023-01-10T08:02:37.852Z,20.20
2023-01-10T08:05:11.494Z,27.42
2023-01-10T08:07:41.028Z,31.27
2023-01-10T08:10:11.555Z,16.48
2023-01-10T08:12:39.306Z,24.15
2023-01-10T08:15:11.685Z,23.73
2023-01-10T08:17:41.063Z,21.67
2023-01-10T08:20:09.858Z,21.33
2023-01-10T08:22:37.226Z,13.43
2023-01-10T08:25:08.344Z,20.30
2023-01-10T08:27:35.583Z,16.50
2023-01-10T08:30:07.951Z,21.20
2023-01-10T08:32:41.053Z,26.50
2023-01-10T08:35:08.847Z,26.23
2023-01-10T08:37:38.855Z,18.55
2023-01-10T08:40:11.045Z,18.92
2023-01-10T08:42:43.759Z,32.08
2023-01-10T08:45:11.973Z,19.33
2023-01-10T08:47:42.775Z,21.75
2023-01-10T08:50:15.167Z,23.20
2023-01-10T08:52:42.516Z,23.17
2023-01-10T08:55:15.451Z,17.42
2023-01-10T08:57:44.511Z,21.85
2023-01-10T09:00:14.754Z,28.90
2023-01-10T09:02:43.865Z,23.70
2023-01-10T09:05:26.468Z,24.08
2023-01-10T09:08:01.265Z,20.75
2023-01-10T09:10:31.011Z,26.02
2023-01-10T09:13:00.041Z,21.60
2023-01-10T09:15:31.340Z,33.90
2023-01-10T09:18:03.049Z,28.23
2023-01-10T09:20:34.020Z,20.33
2023-01-10T09:23:17.523Z,23.42
2023-01-10T09:25:46.160Z,21.52
2023-01-10T09:28:13.504Z,27.42
2023-01-10T09:30:49.956Z,28.30
2023-01-10T09:33:18.187Z,29.20
2023-01-10T09:35:47.503Z,39.45
2023-01-10T09:38:20.761Z,29.35
2023-01-10T09:41:22.647Z,32.03
2023-01-10T09:44:05.776Z,30.23
2023-01-10T09:46:54.902Z,27.25
2023-01-10T09:49:51.240Z,25.27
2023-01-10T09:52:33.789Z,28.55
2023-01-10T09:55:37.243Z,26.15
2023-01-10T09:58:17.005Z,16.33
2023-01-10T10:01:00.247Z,27.60
2023-01-10T10:03:40.963Z,32.80
2023-01-10T10:06:12.967Z,28.27
2023-01-10T10:08:44.502Z,23.25
2023-01-10T10:12:05.611Z,13.45
2023-01-10T10:14:47.902Z,14.15
2023-01-10T10:17:41.426Z,24.63
2023-01-10T10:20:20.021Z,24.80
2023-01-10T10:23:19.592Z,33.38
2023-01-10T10:26:03.114Z,24.02
2023-01-10T10:28:34.506Z,19.05
2023-01-10T10:31:21.930Z,23.40
2023-01-10T10:34:02.353Z,26.10
2023-01-10T10:36:45.189Z,26.65
2023-01-10T10:41:58.879Z,25.45
2023-01-10T10:44:41.165Z,20.23
2023-01-10T10:47:21.895Z,30.77
2023-01-10T10:50:15.311Z,19.88
2023-01-10T10:52:45.863Z,25.58
2023-01-10T10:55:20.156Z,9.45
2023-01-10T10:57:59.743Z,21.42
2023-01-10T11:00:32.117Z,29.92
2023-01-10T11:03:45.930Z,19.17
2023-01-10T11:06:20.337Z,33.25
2023-01-10T11:08:52.752Z,27.10
2023-01-10T11:11:45.111Z,34.45
2023-01-10T11:14:14.707Z,25.50
2023-01-10T11:16:45.096Z,15.98
2023-01-10T11:19:25.381Z,29.13
2023-01-10T11:22:06.930Z,28.70
2023-01-10T11:24:39.473Z,27.02
2023-01-10T11:30:07.240Z,22.70
2023-01-10T11:33:11.036Z,26.25
2023-01-10T11:36:00.709Z,16.45
2023-01-10T11:38:33.260Z,27.25
2023-01-10T11:41:04.330Z,21.55
2023-01-10T11:43:37.260Z,25.38
2023-01-10T11:46:21.595Z,18.10
2023-01-10T11:49:21.971Z,30.13
2023-01-10T11:51:53.191Z,30.63
2023-01-10T11:54:30.810Z,21.25
2023-01-10T11:57:14.383Z,24.65
2023-01-10T12:00:23.025Z,25.83
2023-01-10T12:02:53.126Z,17.98
2023-01-10T12:05:30.274Z,27.50
2023-01-10T12:07:59.075Z,24.25
2023-01-10T12:10:38.271Z,29.33
2023-01-10T12:13:16.533Z,27.98
2023-01-10T12:16:17.590Z,23.05
2023-01-10T12:18:47.208Z,24.85
2023-01-10T12:21:37.284Z,30.25
2023-01-10T12:24:51.898Z,17.83
2023-01-10T12:27:22.920Z,25.27
2023-01-10T12:30:06.806Z,14.38
2023-01-10T12:32:46.731Z,25.08
2023-01-10T12:35:34.359Z,31.77
2023-01-10T12:38:10.975Z,19.73
2023-01-10T12:40:53.021Z,15.68
2023-01-10T12:43:52.036Z,20.85
2023-01-10T12:47:05.332Z,14.60
2023-01-10T12:49:42.276Z,18.65
2023-01-10T12:52:24.688Z,21.20
2023-01-10T12:54:52.929Z,16.80
2023-01-10T12:57:36.140Z,11.43
2023-01-10T13:00:05.870Z,21.58
2023-01-10T13:03:07.429Z,17.67
2023-01-10T13:05:36.944Z,23.65
2023-01-10T13:08:15.316Z,13.73
2023-01-10T13:10:51.777Z,22.30
2023-01-10T13:13:47.192Z,17.77
2023-01-10T13:16:57.333Z,20.98
2023-01-10T13:19:29.751Z,20.30
2023-01-10T13:22:36.256Z,21.90
2023-01-10T13:25:05.911Z,18.50
2023-01-10T13:27:38.834Z,11.77
2023-01-10T13:30:26.773Z,15.90
2023-01-10T13:33:05.378Z,11.50
2023-01-10T13:35:42.486Z,21.40
2023-01-10T13:38:27.731Z,14.55
2023-01-10T13:41:33.219Z,17.58
2023-01-10T13:44:01.994Z,10.63
2023-01-10T13:46:30.157Z,18.00
2023-01-10T13:49:03.817Z,17.25
2023-01-10T13:51:32.353Z,14.90
2023-01-10T13:54:26.168Z,17.63
2023-01-10T13:56:56.275Z,26.48
2023-01-10T14:00:19.721Z,16.90
2023-01-10T14:02:51.091Z,11.40
2023-01-10T14:05:19.137Z,16.38
2023-01-10T14:07:50.600Z,21.17
2023-01-10T14:10:29.884Z,12.30
2023-01-10T14:13:11.553Z,16.42
2023-01-10T14:15:43.340Z,13.95
2023-01-10T14:18:31.398Z,16.80
2023-01-10T14:21:09.116Z,9.23
2023-01-10T14:23:38.932Z,11.57
2023-01-10T14:26:30.617Z,12.95
2023-01-10T14:29:14.165Z,10.00
2023-01-10T14:31:49.962Z,9.52
2023-01-10T14:34:38.778Z,13.32
2023-01-10T14:37:27.953Z,12.10
2023-01-10T14:39:58.065Z,5.35
2023-01-10T14:42:28.071Z,6.90
2023-01-10T14:45:31.798Z,2.65
2023-01-10T14:48:00.687Z,6.45
2023-01-10T14:50:33.223Z,8.10
2023-01-10T14:53:07.541Z,4.17
2023-01-10T14:55:44.984Z,4.78
2023-01-10T14:58:26.382Z,6.93
2023-01-10T15:00:56.745Z,4.63
2023-01-10T15:03:48.682Z,7.65
2023-01-10T15:06:19.567Z,5.80
2023-01-10T15:09:00.158Z,7.50
2023-01-10T15:11:35.160Z,5.90
2023-01-10T15:14:08.363Z,2.92
2023-01-10T15:16:37.463Z,2.28
2023-01-10T15:19:04.686Z,2.67
2023-01-10T15:21:33.880Z,2.78
2023-01-10T15:24:22.897Z,5.22
2023-01-10T15:26:53.765Z,3.60
2023-01-10T15:29:24.990Z,2.58
2023-01-10T15:31:59.743Z,1.25
2023-01-10T15:34:31.575Z,2.25
2023-01-10T15:37:02.050Z,2.10
2023-01-10T15:39:34.651Z,3.05
2023-01-10T15:42:12.449Z,1.92
2023-01-10T15:44:45.725Z,4.45
2023-01-10T15:47:37.264Z,3.53
2023-01-10T15:50:27.635Z,1.08
2023-01-10T15:53:06.330Z,5.03
2023-01-10T15:55:43.128Z,1.98
2023-01-10T15:58:35.263Z,2.05
2023-01-10T16:01:05.237Z,2.28
2023-01-10T16:03:34.913Z,3.10
2023-01-10T16:06:10.984Z,1.20
2023-01-10T16:08:41.700Z,2.65
2023-01-10T16:11:48.513Z,1.63
2023-01-10T16:14:16.621Z,4.43
2023-01-10T16:16:43.677Z,1.02
2023-01-10T16:19:14.816Z,1.15
2023-01-10T16:21:48.652Z,1.73
2023-01-10T16:24:26.131Z,1.33
2023-01-10T16:27:07.470Z,1.05
2023-01-10T16:29:40.469Z,3.13
2023-01-10T16:32:15.422Z,1.45
2023-01-10T16:34:48.903Z,1.42
2023-01-10T16:37:20.488Z,2.70
2023-01-10T16:39:48.957Z,1.42
2023-01-10T16:42:36.200Z,0.73
2023-01-10T16:45:06.846Z,1.02
2023-01-10T16:47:40.167Z,2.08
2023-01-10T16:50:10.372Z,2.17
2023-01-10T16:52:38.734Z,3.40
2023-01-10T16:55:18.137Z,0.88
2023-01-10T16:57:46.828Z,1.77
2023-01-10T17:00:16.617Z,2.55
2023-01-10T17:02:45.847Z,2.67
2023-01-10T17:05:16.439Z,3.28
2023-01-10T17:07:44.912Z,1.67
2023-01-10T17:10:13.109Z,3.80
2023-01-10T17:12:42.312Z,2.45
2023-01-10T17:15:18.847Z,3.78
2023-01-10T17:17:51.174Z,2.08
2023-01-10T17:20:20.014Z,3.65
2023-01-10T17:22:47.030Z,1.92
2023-01-10T17:25:16.558Z,1.10
2023-01-10T17:27:47.254Z,1.73
2023-01-10T17:30:16.485Z,2.33
2023-01-10T17:32:44.390Z,4.70
2023-01-10T17:35:11.740Z,2.28
2023-01-10T17:37:42.864Z,4.10
2023-01-10T17:40:10.810Z,2.38
2023-01-10T17:42:37.986Z,3.70
2023-01-10T17:45:05.541Z,4.30
2023-01-10T17:47:32.571Z,7.22
2023-01-10T17:50:01.844Z,6.15
2023-01-10T17:52:32.841Z,4.65
2023-01-10T17:55:01.099Z,1.92
2023-01-10T17:57:28.196Z,3.50
2023-01-10T17:59:59.223Z,2.30
2023-01-10T18:02:38.300Z,3.17
2023-01-10T18:05:20.921Z,5.68
2023-01-10T18:07:53.619Z,5.82
2023-01-10T18:12:55.174Z,3.33
2023-01-10T18:15:26.037Z,4.68
2023-01-10T18:17:53.260Z,4.85
2023-01-10T18:20:20.475Z,12.18
2023-01-10T18:23:11.798Z,4.50
2023-01-10T18:25:42.556Z,4.28
2023-01-10T18:28:11.510Z,4.97
2023-01-10T18:31:37.401Z,5.90
2023-01-10T18:34:04.744Z,5.35
2023-01-10T18:36:36.098Z,4.07
2023-01-10T18:39:04.775Z,5.68
2023-01-10T18:41:32.385Z,3.15
2023-01-10T18:44:00.453Z,2.65
2023-01-10T18:46:29.087Z,3.03
2023-01-10T18:48:57.527Z,5.22
2023-01-10T18:51:25.672Z,5.32
2023-01-10T18:54:03.446Z,4.82
2023-01-10T18:56:31.523Z,4.45
2023-01-10T18:58:59.366Z,8.40
2023-01-10T19:01:30.104Z,4.28
2023-01-10T19:03:57.806Z,6.07
2023-01-10T19:06:25.107Z,6.40
2023-01-10T19:08:54.325Z,7.43
2023-01-10T19:11:48.713Z,7.43
2023-01-10T19:14:19.609Z,2.70
2023-01-10T19:16:46.720Z,7.05
2023-01-10T19:19:15.818Z,7.03
2023-01-10T19:21:56.285Z,4.72
2023-01-10T19:24:29.037Z,7.82
2023-01-10T19:26:58.565Z,6.28
2023-01-10T19:29:30.603Z,3.63
2023-01-10T19:32:06.552Z,5.97
2023-01-10T19:34:34.913Z,5.97
2023-01-10T19:37:01.832Z,4.97
2023-01-10T19:39:29.469Z,8.00
2023-01-10T19:41:56.564Z,5.05
2023-01-10T19:44:24.714Z,7.40
2023-01-10T19:46:54.017Z,9.68
2023-01-10T19:49:24.450Z,7.97
2023-01-10T19:51:53.803Z,6.25
2023-01-10T19:54:24.204Z,5.40
2023-01-10T19:56:51.151Z,4.78
2023-01-10T19:59:20.178Z,8.00
2023-01-10T20:01:49.576Z,8.40
2023-01-10T20:04:17.448Z,6.55
2023-01-10T20:06:45.408Z,7.28
2023-01-10T20:09:14.712Z,5.18
2023-01-10T20:11:46.410Z,3.88
2023-01-10T20:14:19.395Z,5.50
2023-01-10T20:16:48.946Z,2.67
2023-01-10T20:19:17.558Z,7.47
2023-01-10T20:21:45.723Z,5.57
2023-01-10T20:24:18.189Z,20.58
2023-01-10T20:26:48.545Z,5.55
2023-01-10T20:29:16.630Z,5.95
2023-01-10T20:31:46.528Z,6.45
2023-01-10T20:34:16.123Z,6.63
2023-01-10T20:36:43.198Z,2.28
2023-01-10T20:39:11.299Z,6.70
2023-01-10T20:41:38.326Z,10.63
2023-01-10T20:44:05.743Z,6.82
2023-01-10T20:46:35.166Z,6.60
2023-01-10T20:49:05.214Z,4.15
2023-01-10T20:51:38.422Z,5.03
2023-01-10T20:54:10.057Z,4.82
2023-01-10T20:56:39.290Z,7.35
2023-01-10T20:59:09.390Z,6.22
2023-01-10T21:01:36.820Z,3.28
2023-01-10T21:04:09.056Z,2.97
2023-01-10T21:06:36.992Z,3.53
2023-01-10T21:09:14.402Z,5.85
2023-01-10T21:11:57.937Z,8.45
2023-01-10T21:14:31.616Z,6.07
2023-01-10T21:16:58.810Z,2.20
2023-01-10T21:19:27.134Z,8.52
2023-01-10T21:21:57.643Z,6.80
2023-01-10T21:24:30.644Z,9.32
2023-01-10T21:27:01.079Z,11.10
2023-01-10T21:29:34.039Z,9.95
2023-01-10T21:32:29.137Z,6.63
2023-01-10T21:35:04.871Z,6.07
2023-01-10T21:37:33.169Z,6.07
2023-01-10T21:40:05.392Z,10.60
2023-01-10T21:42:35.630Z,5.82
2023-01-10T21:45:03.619Z,6.35
2023-01-10T21:47:33.129Z,7.93
2023-01-10T21:50:01.404Z,7.55
2023-01-10T21:52:28.661Z,4.57
2023-01-10T21:54:56.006Z,9.90
2023-01-10T21:57:23.667Z,6.82
2023-01-10T21:59:54.764Z,3.63
2023-01-10T22:02:49.494Z,6.88
2023-01-10T22:05:17.888Z,7.68
2023-01-10T22:07:46.014Z,3.78
2023-01-10T22:10:13.244Z,7.63
2023-01-10T22:12:44.616Z,9.60
2023-01-10T22:15:12.028Z,7.07
2023-01-10T22:17:40.182Z,9.00
2023-01-10T22:20:10.712Z,4.95
2023-01-10T22:22:40.054Z,3.55
2023-01-10T22:25:08.062Z,6.25
2023-01-10T22:27:35.121Z,4.32
2023-01-10T22:30:07.285Z,5.15
2023-01-10T22:32:35.938Z,8.93
2023-01-10T22:35:05.259Z,5.60
2023-01-10T22:37:32.329Z,4.25
2023-01-10T22:40:02.638Z,3.42
2023-01-10T22:42:34.414Z,2.67
2023-01-10T22:45:04.822Z,4.93
2023-01-10T22:47:38.173Z,4.28
2023-01-10T22:51:05.977Z,3.25
2023-01-10T22:54:04.693Z,3.50
2023-01-10T22:56:45.846Z,2.13
2023-01-10T22:59:24.194Z,4.03
2023-01-10T23:01:51.365Z,3.90
2023-01-10T23:04:22.308Z,4.07
2023-01-10T23:06:50.472Z,5.00
2023-01-10T23:09:19.910Z,2.63
2023-01-10T23:11:48.398Z,5.38
2023-01-10T23:14:16.837Z,3.00
2023-01-10T23:16:46.154Z,3.45
2023-01-10T23:19:14.030Z,5.60
2023-01-10T23:21:42.214Z,5.03
2023-01-10T23:24:09.178Z,4.25
2023-01-10T23:26:37.321Z,6.82
2023-01-10T23:29:10.038Z,4.95
2023-01-10T23:31:37.089Z,5.43
2023-01-10T23:34:04.088Z,4.88
2023-01-10T23:36:37.808Z,4.32
2023-01-10T23:39:06.763Z,4.00
2023-01-10T23:41:34.789Z,7.15
2023-01-10T23:44:03.843Z,8.95
2023-01-10T23:46:30.897Z,7.68
2023-01-10T23:48:59.476Z,6.05
2023-01-10T23:51:32.324Z,2.85
2023-01-10T23:54:00.161Z,7.75
2023-01-10T23:56:30.408Z,7.93
2023-01-10T23:59:13.918Z,4.93
